sensor_id;sensor_type;location;lat;lon;timestamp;P1;durP1;ratioP1;P2;durP2;ratioP2
20495;SDS011;10406;54.132;17.968;2022-08-21T00:04:40;13.93;;;7.95;;
20495;SDS011;10406;54.132;17.968;2022-08-21T00:10:01;13.27;;;7.63;;
20495;SDS011;10406;54.132;17.968;2022-08-21T00:15:25;16.67;;;7.43;;
20495;SDS011;10406;54.132;17.968;2022-08-21T00:20:49;10.82;;;6.90;;
20495;SDS011;10406;54.132;17.968;2022-08-21T00:26:10;14.50;;;7.07;;
20495;SDS011;10406;54.132;17.968;2022-08-21T00:31:31;13.88;;;6.57;;
20495;SDS011;10406;54.132;17.968;2022-08-21T00:36:54;18.23;;;7.90;;
20495;SDS011;10406;54.132;17.968;2022-08-21T00:42:15;16.42;;;8.50;;
20495;SDS011;10406;54.132;17.968;2022-08-21T00:47:37;17.40;;;8.45;;
20495;SDS011;10406;54.132;17.968;2022-08-21T00:52:59;19.50;;;8.40;;
20495;SDS011;10406;54.132;17.968;2022-08-21T00:58:23;16.95;;;8.50;;
20495;SDS011;10406;54.132;17.968;2022-08-21T01:03:46;14.13;;;8.25;;
20495;SDS011;10406;54.132;17.968;2022-08-21T01:09:09;20.33;;;8.63;;
20495;SDS011;10406;54.132;17.968;2022-08-21T01:14:30;19.98;;;9.75;;
20495;SDS011;10406;54.132;17.968;2022-08-21T01:19:53;20.80;;;9.40;;
20495;SDS011;10406;54.132;17.968;2022-08-21T01:25:19;21.75;;;9.60;;
20495;SDS011;10406;54.132;17.968;2022-08-21T01:30:40;21.45;;;10.15;;
20495;SDS011;10406;54.132;17.968;2022-08-21T01:36:03;24.00;;;11.48;;
20495;SDS011;10406;54.132;17.968;2022-08-21T01:41:27;29.50;;;11.73;;
20495;SDS011;10406;54.132;17.968;2022-08-21T01:46:48;29.98;;;12.07;;
20495;SDS011;10406;54.132;17.968;2022-08-21T01:52:09;28.27;;;12.45;;
20495;SDS011;10406;54.132;17.968;2022-08-21T01:57:32;28.77;;;13.15;;
20495;SDS011;10406;54.132;17.968;2022-08-21T02:02:53;26.98;;;13.15;;
20495;SDS011;10406;54.132;17.968;2022-08-21T02:08:15;26.63;;;13.23;;
20495;SDS011;10406;54.132;17.968;2022-08-21T02:13:37;36.00;;;14.05;;
20495;SDS011;10406;54.132;17.968;2022-08-21T02:18:58;32.72;;;14.25;;
20495;SDS011;10406;54.132;17.968;2022-08-21T02:24:19;26.70;;;14.23;;
20495;SDS011;10406;54.132;17.968;2022-08-21T02:29:43;29.17;;;14.35;;
20495;SDS011;10406;54.132;17.968;2022-08-21T02:35:04;26.58;;;13.00;;
20495;SDS011;10406;54.132;17.968;2022-08-21T02:40:27;30.42;;;12.35;;
20495;SDS011;10406;54.132;17.968;2022-08-21T02:45:51;32.20;;;13.18;;
20495;SDS011;10406;54.132;17.968;2022-08-21T02:51:15;31.30;;;11.70;;
20495;SDS011;10406;54.132;17.968;2022-08-21T02:56:38;20.80;;;10.80;;
20495;SDS011;10406;54.132;17.968;2022-08-21T03:02:00;27.38;;;11.07;;
20495;SDS011;10406;54.132;17.968;2022-08-21T03:07:21;20.73;;;10.05;;
20495;SDS011;10406;54.132;17.968;2022-08-21T03:12:42;22.45;;;10.75;;
20495;SDS011;10406;54.132;17.968;2022-08-21T03:18:05;18.17;;;9.25;;
20495;SDS011;10406;54.132;17.968;2022-08-21T03:23:26;23.52;;;9.13;;
20495;SDS011;10406;54.132;17.968;2022-08-21T03:28:49;22.20;;;8.48;;
20495;SDS011;10406;54.132;17.968;2022-08-21T03:34:12;19.85;;;9.25;;
20495;SDS011;10406;54.132;17.968;2022-08-21T03:39:34;21.58;;;8.55;;
20495;SDS011;10406;54.132;17.968;2022-08-21T03:44:55;15.15;;;8.18;;
20495;SDS011;10406;54.132;17.968;2022-08-21T03:50:17;16.63;;;8.05;;
20495;SDS011;10406;54.132;17.968;2022-08-21T03:55:38;21.75;;;7.80;;
20495;SDS011;10406;54.132;17.968;2022-08-21T04:01:00;17.08;;;8.35;;
20495;SDS011;10406;54.132;17.968;2022-08-21T04:06:24;14.25;;;8.43;;
20495;SDS011;10406;54.132;17.968;2022-08-21T04:11:48;16.23;;;7.65;;
20495;SDS011;10406;54.132;17.968;2022-08-21T04:17:09;24.25;;;7.90;;
20495;SDS011;10406;54.132;17.968;2022-08-21T04:22:31;14.40;;;7.13;;
20495;SDS011;10406;54.132;17.968;2022-08-21T04:27:52;11.57;;;6.72;;
20495;SDS011;10406;54.132;17.968;2022-08-21T04:33:13;20.33;;;7.27;;
20495;SDS011;10406;54.132;17.968;2022-08-21T04:38:36;16.50;;;6.93;;
20495;SDS011;10406;54.132;17.968;2022-08-21T04:43:57;19.80;;;7.05;;
20495;SDS011;10406;54.132;17.968;2022-08-21T04:49:18;17.85;;;6.97;;
20495;SDS011;10406;54.132;17.968;2022-08-21T04:54:41;16.17;;;7.20;;
20495;SDS011;10406;54.132;17.968;2022-08-21T05:00:04;13.93;;;7.45;;
20495;SDS011;10406;54.132;17.968;2022-08-21T05:05:27;10.63;;;6.70;;
20495;SDS011;10406;54.132;17.968;2022-08-21T05:10:51;16.83;;;7.10;;
20495;SDS011;10406;54.132;17.968;2022-08-21T05:16:12;15.45;;;6.95;;
20495;SDS011;10406;54.132;17.968;2022-08-21T05:21:35;18.52;;;7.32;;
20495;SDS011;10406;54.132;17.968;2022-08-21T05:26:59;11.18;;;6.90;;
20495;SDS011;10406;54.132;17.968;2022-08-21T05:32:20;13.63;;;6.57;;
20495;SDS011;10406;54.132;17.968;2022-08-21T05:37:41;23.75;;;6.22;;
20495;SDS011;10406;54.132;17.968;2022-08-21T05:43:03;14.60;;;6.25;;
20495;SDS011;10406;54.132;17.968;2022-08-21T05:48:24;10.70;;;6.05;;
20495;SDS011;10406;54.132;17.968;2022-08-21T05:53:45;12.27;;;6.00;;
20495;SDS011;10406;54.132;17.968;2022-08-21T05:59:08;8.60;;;5.80;;
20495;SDS011;10406;54.132;17.968;2022-08-21T06:04:30;11.70;;;6.15;;
20495;SDS011;10406;54.132;17.968;2022-08-21T06:09:51;8.02;;;5.72;;
20495;SDS011;10406;54.132;17.968;2022-08-21T06:15:14;9.93;;;5.35;;
20495;SDS011;10406;54.132;17.968;2022-08-21T06:20:35;6.40;;;5.30;;
20495;SDS011;10406;54.132;17.968;2022-08-21T06:25:57;9.90;;;5.00;;
20495;SDS011;10406;54.132;17.968;2022-08-21T06:31:21;7.32;;;5.22;;
20495;SDS011;10406;54.132;17.968;2022-08-21T06:36:47;10.27;;;5.18;;
20495;SDS011;10406;54.132;17.968;2022-08-21T06:42:12;8.20;;;4.88;;
20495;SDS011;10406;54.132;17.968;2022-08-21T06:47:35;7.88;;;4.90;;
20495;SDS011;10406;54.132;17.968;2022-08-21T06:53:00;10.40;;;4.80;;
20495;SDS011;10406;54.132;17.968;2022-08-21T06:58:23;8.23;;;5.22;;
20495;SDS011;10406;54.132;17.968;2022-08-21T07:03:45;8.10;;;5.10;;
20495;SDS011;10406;54.132;17.968;2022-08-21T07:09:06;9.70;;;5.68;;
20495;SDS011;10406;54.132;17.968;2022-08-21T07:14:29;9.18;;;5.35;;
20495;SDS011;10406;54.132;17.968;2022-08-21T07:19:54;6.60;;;4.82;;
20495;SDS011;10406;54.132;17.968;2022-08-21T07:25:16;8.20;;;5.20;;
20495;SDS011;10406;54.132;17.968;2022-08-21T07:30:37;8.40;;;4.55;;
20495;SDS011;10406;54.132;17.968;2022-08-21T07:36:00;7.30;;;5.07;;
20495;SDS011;10406;54.132;17.968;2022-08-21T07:41:22;9.43;;;5.38;;
20495;SDS011;10406;54.132;17.968;2022-08-21T07:46:45;11.52;;;5.15;;
20495;SDS011;10406;54.132;17.968;2022-08-21T07:52:07;11.35;;;4.90;;
20495;SDS011;10406;54.132;17.968;2022-08-21T07:57:28;9.57;;;5.13;;
20495;SDS011;10406;54.132;17.968;2022-08-21T08:02:49;10.25;;;5.25;;
20495;SDS011;10406;54.132;17.968;2022-08-21T08:08:13;9.15;;;4.72;;
20495;SDS011;10406;54.132;17.968;2022-08-21T08:13:37;9.13;;;5.43;;
20495;SDS011;10406;54.132;17.968;2022-08-21T08:18:59;6.18;;;4.70;;
20495;SDS011;10406;54.132;17.968;2022-08-21T08:24:22;9.20;;;5.18;;
20495;SDS011;10406;54.132;17.968;2022-08-21T08:29:43;7.47;;;4.75;;
20495;SDS011;10406;54.132;17.968;2022-08-21T08:35:05;9.57;;;5.45;;
20495;SDS011;10406;54.132;17.968;2022-08-21T08:40:31;7.45;;;4.75;;
20495;SDS011;10406;54.132;17.968;2022-08-21T08:46:01;9.80;;;5.32;;
20495;SDS011;10406;54.132;17.968;2022-08-21T08:51:25;10.48;;;5.80;;
20495;SDS011;10406;54.132;17.968;2022-08-21T08:56:50;8.18;;;5.43;;
20495;SDS011;10406;54.132;17.968;2022-08-21T09:02:15;14.48;;;5.50;;
20495;SDS011;10406;54.132;17.968;2022-08-21T09:07:39;12.85;;;5.40;;
20495;SDS011;10406;54.132;17.968;2022-08-21T09:13:07;15.43;;;5.63;;
20495;SDS011;10406;54.132;17.968;2022-08-21T09:18:39;6.68;;;4.80;;
20495;SDS011;10406;54.132;17.968;2022-08-21T09:24:17;9.77;;;5.45;;
20495;SDS011;10406;54.132;17.968;2022-08-21T09:29:56;9.32;;;4.95;;
20495;SDS011;10406;54.132;17.968;2022-08-21T09:35:19;10.88;;;4.60;;
20495;SDS011;10406;54.132;17.968;2022-08-21T09:40:42;6.83;;;4.63;;
20495;SDS011;10406;54.132;17.968;2022-08-21T09:46:07;5.77;;;4.27;;
20495;SDS011;10406;54.132;17.968;2022-08-21T09:51:34;7.00;;;4.95;;
20495;SDS011;10406;54.132;17.968;2022-08-21T09:56:59;6.93;;;4.55;;
20495;SDS011;10406;54.132;17.968;2022-08-21T10:08:28;9.43;;;4.03;;
20495;SDS011;10406;54.132;17.968;2022-08-21T10:20:40;5.45;;;3.78;;
20495;SDS011;10406;54.132;17.968;2022-08-21T10:26:11;7.10;;;4.23;;
20495;SDS011;10406;54.132;17.968;2022-08-21T10:31:47;8.80;;;4.70;;
20495;SDS011;10406;54.132;17.968;2022-08-21T10:37:26;12.32;;;5.60;;
20495;SDS011;10406;54.132;17.968;2022-08-21T10:43:16;9.00;;;5.10;;
20495;SDS011;10406;54.132;17.968;2022-08-21T10:48:51;8.07;;;4.30;;
20495;SDS011;10406;54.132;17.968;2022-08-21T10:54:23;5.82;;;4.35;;
20495;SDS011;10406;54.132;17.968;2022-08-21T10:59:57;4.38;;;3.75;;
20495;SDS011;10406;54.132;17.968;2022-08-21T11:05:33;8.23;;;4.45;;
20495;SDS011;10406;54.132;17.968;2022-08-21T11:10:59;5.10;;;4.07;;
20495;SDS011;10406;54.132;17.968;2022-08-21T11:16:44;7.93;;;4.40;;
20495;SDS011;10406;54.132;17.968;2022-08-21T11:22:15;6.05;;;4.00;;
20495;SDS011;10406;54.132;17.968;2022-08-21T11:27:49;8.07;;;4.17;;
20495;SDS011;10406;54.132;17.968;2022-08-21T11:33:29;15.87;;;4.60;;
20495;SDS011;10406;54.132;17.968;2022-08-21T11:39:11;7.82;;;4.40;;
20495;SDS011;10406;54.132;17.968;2022-08-21T11:44:43;7.53;;;4.50;;
20495;SDS011;10406;54.132;17.968;2022-08-21T11:50:14;5.65;;;4.13;;
20495;SDS011;10406;54.132;17.968;2022-08-21T11:55:41;9.98;;;5.35;;
20495;SDS011;10406;54.132;17.968;2022-08-21T12:01:14;11.63;;;5.15;;
20495;SDS011;10406;54.132;17.968;2022-08-21T12:06:40;4.40;;;3.75;;
20495;SDS011;10406;54.132;17.968;2022-08-21T12:12:10;7.80;;;3.72;;
20495;SDS011;10406;54.132;17.968;2022-08-21T12:17:53;4.23;;;3.60;;
20495;SDS011;10406;54.132;17.968;2022-08-21T12:23:26;4.77;;;3.83;;
20495;SDS011;10406;54.132;17.968;2022-08-21T12:29:07;7.17;;;3.70;;
20495;SDS011;10406;54.132;17.968;2022-08-21T12:34:42;6.07;;;4.30;;
20495;SDS011;10406;54.132;17.968;2022-08-21T12:40:14;4.40;;;3.77;;
20495;SDS011;10406;54.132;17.968;2022-08-21T12:57:37;5.50;;;4.47;;
20495;SDS011;10406;54.132;17.968;2022-08-21T13:03:00;5.33;;;3.87;;
20495;SDS011;10406;54.132;17.968;2022-08-21T13:08:25;4.83;;;4.07;;
20495;SDS011;10406;54.132;17.968;2022-08-21T13:14:14;7.97;;;4.15;;
20495;SDS011;10406;54.132;17.968;2022-08-21T13:38:50;8.63;;;3.78;;
20495;SDS011;10406;54.132;17.968;2022-08-21T13:44:16;4.63;;;3.70;;
20495;SDS011;10406;54.132;17.968;2022-08-21T13:49:42;5.35;;;3.90;;
20495;SDS011;10406;54.132;17.968;2022-08-21T13:55:12;12.80;;;4.00;;
20495;SDS011;10406;54.132;17.968;2022-08-21T14:00:43;5.35;;;4.05;;
20495;SDS011;10406;54.132;17.968;2022-08-21T14:06:11;9.23;;;3.60;;
20495;SDS011;10406;54.132;17.968;2022-08-21T14:11:43;7.28;;;4.18;;
20495;SDS011;10406;54.132;17.968;2022-08-21T14:17:12;9.15;;;4.28;;
20495;SDS011;10406;54.132;17.968;2022-08-21T14:22:56;6.77;;;3.97;;
20495;SDS011;10406;54.132;17.968;2022-08-21T14:28:23;8.77;;;3.72;;
20495;SDS011;10406;54.132;17.968;2022-08-21T14:33:47;6.13;;;3.63;;
20495;SDS011;10406;54.132;17.968;2022-08-21T14:39:10;7.20;;;4.70;;
20495;SDS011;10406;54.132;17.968;2022-08-21T14:44:42;5.80;;;3.63;;
20495;SDS011;10406;54.132;17.968;2022-08-21T14:50:08;13.00;;;4.10;;
20495;SDS011;10406;54.132;17.968;2022-08-21T14:55:38;7.38;;;3.72;;
20495;SDS011;10406;54.132;17.968;2022-08-21T15:01:22;6.63;;;3.78;;
20495;SDS011;10406;54.132;17.968;2022-08-21T15:06:44;10.45;;;3.85;;
20495;SDS011;10406;54.132;17.968;2022-08-21T15:13:08;6.63;;;4.32;;
20495;SDS011;10406;54.132;17.968;2022-08-21T15:25:35;8.00;;;3.50;;
20495;SDS011;10406;54.132;17.968;2022-08-21T15:30:57;10.05;;;4.78;;
20495;SDS011;10406;54.132;17.968;2022-08-21T15:36:21;4.82;;;3.85;;
20495;SDS011;10406;54.132;17.968;2022-08-21T15:42:02;15.18;;;6.22;;
20495;SDS011;10406;54.132;17.968;2022-08-21T15:47:27;11.67;;;4.23;;
20495;SDS011;10406;54.132;17.968;2022-08-21T15:53:28;20.73;;;8.20;;
20495;SDS011;10406;54.132;17.968;2022-08-21T16:13:00;5.15;;;4.65;;
20495;SDS011;10406;54.132;17.968;2022-08-21T16:18:59;8.13;;;4.93;;
20495;SDS011;10406;54.132;17.968;2022-08-21T16:24:25;5.28;;;3.97;;
20495;SDS011;10406;54.132;17.968;2022-08-21T16:29:48;6.03;;;3.70;;
20495;SDS011;10406;54.132;17.968;2022-08-21T16:35:10;11.67;;;4.90;;
20495;SDS011;10406;54.132;17.968;2022-08-21T16:40:32;5.87;;;4.17;;
20495;SDS011;10406;54.132;17.968;2022-08-21T16:46:05;11.50;;;4.57;;
20495;SDS011;10406;54.132;17.968;2022-08-21T16:51:31;7.22;;;3.40;;
20495;SDS011;10406;54.132;17.968;2022-08-21T16:56:53;9.43;;;3.90;;
20495;SDS011;10406;54.132;17.968;2022-08-21T17:02:20;8.87;;;5.10;;
20495;SDS011;10406;54.132;17.968;2022-08-21T17:07:52;6.50;;;3.97;;
20495;SDS011;10406;54.132;17.968;2022-08-21T17:13:23;11.70;;;4.60;;
20495;SDS011;10406;54.132;17.968;2022-08-21T17:18:48;11.73;;;6.13;;
20495;SDS011;10406;54.132;17.968;2022-08-21T17:24:09;8.17;;;4.57;;
20495;SDS011;10406;54.132;17.968;2022-08-21T17:29:34;10.87;;;4.40;;
20495;SDS011;10406;54.132;17.968;2022-08-21T17:35:01;6.73;;;4.07;;
20495;SDS011;10406;54.132;17.968;2022-08-21T17:40:28;6.87;;;3.73;;
20495;SDS011;10406;54.132;17.968;2022-08-21T17:45:57;9.97;;;3.70;;
20495;SDS011;10406;54.132;17.968;2022-08-21T17:51:20;13.52;;;4.00;;
20495;SDS011;10406;54.132;17.968;2022-08-21T17:56:41;7.73;;;3.77;;
20495;SDS011;10406;54.132;17.968;2022-08-21T18:02:03;4.87;;;3.67;;
20495;SDS011;10406;54.132;17.968;2022-08-21T18:07:29;5.60;;;3.93;;
20495;SDS011;10406;54.132;17.968;2022-08-21T18:12:50;6.70;;;3.53;;
20495;SDS011;10406;54.132;17.968;2022-08-21T18:18:12;5.20;;;3.53;;
20495;SDS011;10406;54.132;17.968;2022-08-21T18:23:35;7.00;;;3.92;;
20495;SDS011;10406;54.132;17.968;2022-08-21T18:29:00;8.63;;;3.80;;
20495;SDS011;10406;54.132;17.968;2022-08-21T18:34:30;8.03;;;3.33;;
20495;SDS011;10406;54.132;17.968;2022-08-21T18:39:55;6.90;;;4.17;;
20495;SDS011;10406;54.132;17.968;2022-08-21T18:45:17;6.33;;;3.83;;
20495;SDS011;10406;54.132;17.968;2022-08-21T18:50:39;3.93;;;3.60;;
20495;SDS011;10406;54.132;17.968;2022-08-21T18:56:04;4.72;;;4.20;;
20495;SDS011;10406;54.132;17.968;2022-08-21T19:01:26;8.40;;;4.17;;
20495;SDS011;10406;54.132;17.968;2022-08-21T19:06:47;7.67;;;4.40;;
20495;SDS011;10406;54.132;17.968;2022-08-21T19:12:19;9.20;;;3.90;;
20495;SDS011;10406;54.132;17.968;2022-08-21T19:17:42;12.67;;;6.33;;
20495;SDS011;10406;54.132;17.968;2022-08-21T19:23:05;6.13;;;4.10;;
20495;SDS011;10406;54.132;17.968;2022-08-21T19:28:29;10.38;;;4.72;;
20495;SDS011;10406;54.132;17.968;2022-08-21T19:33:54;8.27;;;4.40;;
20495;SDS011;10406;54.132;17.968;2022-08-21T19:39:19;9.07;;;4.13;;
20495;SDS011;10406;54.132;17.968;2022-08-21T19:44:44;7.33;;;3.97;;
20495;SDS011;10406;54.132;17.968;2022-08-21T19:50:06;9.80;;;3.93;;
20495;SDS011;10406;54.132;17.968;2022-08-21T19:55:29;6.47;;;3.90;;
20495;SDS011;10406;54.132;17.968;2022-08-21T20:00:54;10.60;;;4.30;;
20495;SDS011;10406;54.132;17.968;2022-08-21T20:06:15;6.78;;;4.15;;
20495;SDS011;10406;54.132;17.968;2022-08-21T20:11:38;9.33;;;4.50;;
20495;SDS011;10406;54.132;17.968;2022-08-21T20:17:03;12.13;;;5.67;;
20495;SDS011;10406;54.132;17.968;2022-08-21T20:22:28;47.97;;;13.17;;
20495;SDS011;10406;54.132;17.968;2022-08-21T20:27:50;30.45;;;13.18;;
20495;SDS011;10406;54.132;17.968;2022-08-21T20:33:40;9.00;;;4.53;;
20495;SDS011;10406;54.132;17.968;2022-08-21T20:39:04;36.55;;;19.33;;
20495;SDS011;10406;54.132;17.968;2022-08-21T20:44:26;12.53;;;7.20;;
20495;SDS011;10406;54.132;17.968;2022-08-21T20:49:54;9.63;;;4.20;;
20495;SDS011;10406;54.132;17.968;2022-08-21T20:55:24;6.27;;;4.10;;
20495;SDS011;10406;54.132;17.968;2022-08-21T21:00:48;15.63;;;6.07;;
20495;SDS011;10406;54.132;17.968;2022-08-21T21:06:12;30.30;;;10.67;;
20495;SDS011;10406;54.132;17.968;2022-08-21T21:11:38;34.30;;;20.07;;
20495;SDS011;10406;54.132;17.968;2022-08-21T21:17:03;29.90;;;10.23;;
20495;SDS011;10406;54.132;17.968;2022-08-21T21:22:30;19.57;;;9.17;;
20495;SDS011;10406;54.132;17.968;2022-08-21T21:27:56;10.97;;;5.47;;
20495;SDS011;10406;54.132;17.968;2022-08-21T21:33:23;13.57;;;6.07;;
20495;SDS011;10406;54.132;17.968;2022-08-21T21:38:46;13.27;;;8.30;;
20495;SDS011;10406;54.132;17.968;2022-08-21T21:44:17;27.33;;;13.23;;
20495;SDS011;10406;54.132;17.968;2022-08-21T21:49:58;8.77;;;5.07;;
20495;SDS011;10406;54.132;17.968;2022-08-21T21:55:35;8.87;;;4.90;;
20495;SDS011;10406;54.132;17.968;2022-08-21T22:01:06;13.03;;;6.20;;
20495;SDS011;10406;54.132;17.968;2022-08-21T22:06:33;8.10;;;4.47;;
20495;SDS011;10406;54.132;17.968;2022-08-21T22:12:07;57.13;;;30.80;;
20495;SDS011;10406;54.132;17.968;2022-08-21T22:17:54;31.47;;;13.60;;
20495;SDS011;10406;54.132;17.968;2022-08-21T22:23:21;21.83;;;7.47;;
20495;SDS011;10406;54.132;17.968;2022-08-21T22:28:47;7.47;;;4.63;;
20495;SDS011;10406;54.132;17.968;2022-08-21T22:34:11;5.70;;;4.37;;
20495;SDS011;10406;54.132;17.968;2022-08-21T22:39:39;7.97;;;4.67;;
20495;SDS011;10406;54.132;17.968;2022-08-21T22:45:05;10.37;;;4.23;;
20495;SDS011;10406;54.132;17.968;2022-08-21T22:50:31;9.00;;;4.47;;
20495;SDS011;10406;54.132;17.968;2022-08-21T22:56:02;7.20;;;4.30;;
20495;SDS011;10406;54.132;17.968;2022-08-21T23:01:34;8.03;;;4.23;;
20495;SDS011;10406;54.132;17.968;2022-08-21T23:06:59;7.40;;;4.00;;
20495;SDS011;10406;54.132;17.968;2022-08-21T23:12:25;5.33;;;3.90;;
20495;SDS011;10406;54.132;17.968;2022-08-21T23:17:52;7.53;;;4.60;;
20495;SDS011;10406;54.132;17.968;2022-08-21T23:23:21;6.60;;;4.20;;
20495;SDS011;10406;54.132;17.968;2022-08-21T23:28:52;17.83;;;6.07;;
20495;SDS011;10406;54.132;17.968;2022-08-21T23:34:25;32.63;;;10.90;;
20495;SDS011;10406;54.132;17.968;2022-08-21T23:39:55;6.13;;;4.50;;
20495;SDS011;10406;54.132;17.968;2022-08-21T23:45:32;7.03;;;3.97;;
20495;SDS011;10406;54.132;17.968;2022-08-21T23:51:01;11.50;;;4.57;;
20495;SDS011;10406;54.132;17.968;2022-08-21T23:56:46;9.47;;;3.83;;
